createdAt,value
2023-02-09T00:00:38.137Z,37.83
2023-02-09T00:02:00.952Z,31.67
2023-02-09T00:03:23.107Z,32.20
2023-02-09T00:04:45.183Z,35.80
2023-02-09T00:06:09.309Z,32.50
2023-02-09T00:07:31.410Z,31.80
2023-02-09T00:08:53.909Z,30.60
2023-02-09T00:10:16.089Z,40.67
2023-02-09T00:11:56.577Z,34.43
2023-02-09T00:13:24.534Z,30.20
2023-02-09T00:14:46.567Z,34.90
2023-02-09T00:16:08.629Z,33.87
2023-02-09T00:17:33.182Z,32.37
2023-02-09T00:18:57.128Z,35.07
2023-02-09T00:20:19.206Z,33.90
2023-02-09T00:21:41.615Z,33.73
2023-02-09T00:23:03.685Z,38.70
2023-02-09T00:24:26.106Z,34.17
2023-02-09T00:25:48.157Z,36.77
2023-02-09T00:27:10.185Z,31.67
2023-02-09T00:28:32.424Z,29.37
2023-02-09T00:29:54.495Z,33.20
2023-02-09T00:31:16.596Z,29.30
2023-02-09T00:32:38.660Z,33.30
2023-02-09T00:34:01.619Z,26.60
2023-02-09T00:35:23.677Z,31.33
2023-02-09T00:36:45.781Z,30.97
2023-02-09T00:38:08.803Z,32.00
2023-02-09T00:39:31.229Z,33.40
2023-02-09T00:40:53.242Z,29.93
2023-02-09T00:42:15.587Z,29.20
2023-02-09T00:43:37.798Z,30.60
2023-02-09T00:44:59.875Z,30.30
2023-02-09T00:46:21.886Z,33.13
2023-02-09T00:47:43.950Z,31.73
2023-02-09T00:49:06.291Z,33.87
2023-02-09T00:50:29.091Z,32.90
2023-02-09T00:51:51.177Z,31.30
2023-02-09T00:53:13.278Z,34.00
2023-02-09T00:54:35.303Z,33.13
2023-02-09T00:55:57.372Z,30.37
2023-02-09T00:57:19.407Z,33.03
2023-02-09T00:58:41.508Z,29.37
2023-02-09T01:00:06.137Z,30.03
2023-02-09T01:01:28.349Z,29.17
2023-02-09T01:02:50.399Z,31.50
2023-02-09T01:04:12.570Z,31.83
2023-02-09T01:05:38.093Z,33.10
2023-02-09T01:07:00.102Z,33.57
2023-02-09T01:08:22.146Z,33.40
2023-02-09T01:09:44.170Z,25.20
2023-02-09T01:11:10.914Z,31.80
2023-02-09T01:12:33.207Z,33.60
2023-02-09T01:13:57.800Z,30.97
2023-02-09T01:15:19.908Z,28.80
2023-02-09T01:16:41.982Z,34.50
2023-02-09T01:18:04.062Z,31.10
2023-02-09T01:19:26.808Z,31.00
2023-02-09T01:20:48.909Z,37.73
2023-02-09T01:22:12.317Z,28.53
2023-02-09T01:23:34.466Z,36.23
2023-02-09T01:24:56.683Z,31.93
2023-02-09T01:26:19.334Z,33.07
2023-02-09T01:27:42.207Z,32.60
2023-02-09T01:29:04.279Z,35.30
2023-02-09T01:30:26.679Z,27.00
2023-02-09T01:31:50.070Z,31.07
2023-02-09T01:33:12.151Z,34.97
2023-02-09T01:34:34.191Z,27.03
2023-02-09T01:36:03.226Z,37.00
2023-02-09T01:37:25.322Z,31.03
2023-02-09T01:38:47.430Z,29.23
2023-02-09T01:40:10.659Z,31.93
2023-02-09T01:41:34.154Z,28.60
2023-02-09T01:42:56.214Z,26.57
2023-02-09T01:44:18.256Z,27.37
2023-02-09T01:45:56.293Z,34.40
2023-02-09T01:47:19.846Z,27.17
2023-02-09T01:48:42.048Z,30.50
2023-02-09T01:50:04.642Z,30.13
2023-02-09T01:51:27.388Z,35.50
2023-02-09T01:52:50.175Z,40.70
2023-02-09T01:54:20.054Z,31.10
2023-02-09T01:55:52.723Z,29.93
2023-02-09T01:57:24.738Z,35.40
2023-02-09T01:58:47.976Z,34.03
2023-02-09T02:00:18.365Z,31.20
2023-02-09T02:01:41.074Z,33.90
2023-02-09T02:03:07.981Z,39.17
2023-02-09T02:04:30.808Z,32.67
2023-02-09T02:05:58.797Z,29.00
2023-02-09T02:07:31.052Z,30.93
2023-02-09T02:08:57.671Z,29.80
2023-02-09T02:10:19.790Z,30.13
2023-02-09T02:11:46.227Z,30.70
2023-02-09T02:13:08.507Z,33.93
2023-02-09T02:14:36.743Z,30.47
2023-02-09T02:16:26.436Z,40.70
2023-02-09T02:18:10.593Z,34.90
2023-02-09T02:19:51.047Z,32.23
2023-02-09T02:21:35.009Z,32.77
2023-02-09T02:23:15.598Z,30.73
2023-02-09T02:24:40.458Z,29.87
2023-02-09T02:26:43.403Z,33.30
2023-02-09T02:28:20.534Z,29.30
2023-02-09T02:30:05.973Z,35.70
2023-02-09T02:32:05.118Z,33.77
2023-02-09T02:33:59.334Z,31.23
2023-02-09T02:35:45.837Z,30.17
2023-02-09T02:37:32.698Z,31.00
2023-02-09T02:39:01.333Z,33.60
2023-02-09T02:40:26.449Z,34.33
2023-02-09T02:42:17.456Z,29.17
2023-02-09T02:44:06.826Z,33.03
2023-02-09T02:45:48.789Z,29.07
2023-02-09T02:47:15.630Z,37.40
2023-02-09T02:48:59.839Z,35.80
2023-02-09T02:50:26.233Z,34.50
2023-02-09T02:51:51.631Z,36.20
2023-02-09T02:53:16.096Z,32.50
2023-02-09T02:54:46.490Z,30.00
2023-02-09T02:56:19.370Z,26.60
2023-02-09T02:57:45.697Z,32.10
2023-02-09T02:59:12.640Z,28.20
2023-02-09T03:00:41.022Z,31.00
2023-02-09T03:02:15.068Z,34.50
2023-02-09T03:03:39.890Z,31.20
2023-02-09T03:05:04.260Z,32.83
2023-02-09T03:06:26.416Z,32.90
2023-02-09T03:07:48.759Z,33.20
2023-02-09T03:09:10.847Z,27.43
2023-02-09T03:10:39.256Z,30.13
2023-02-09T03:12:17.662Z,27.63
2023-02-09T03:14:16.818Z,29.73
2023-02-09T03:16:08.958Z,34.73
2023-02-09T03:17:53.835Z,29.80
2023-02-09T03:19:33.867Z,32.47
2023-02-09T03:21:31.210Z,27.83
2023-02-09T03:23:00.169Z,32.40
2023-02-09T03:24:34.207Z,34.17
2023-02-09T03:25:58.261Z,33.00
2023-02-09T03:27:25.234Z,27.90
2023-02-09T03:28:49.651Z,30.90
2023-02-09T03:30:14.315Z,27.03
2023-02-09T03:31:37.526Z,30.63
2023-02-09T03:33:00.018Z,33.53
2023-02-09T03:34:22.134Z,25.67
2023-02-09T03:35:44.242Z,30.77
2023-02-09T03:37:06.397Z,29.03
2023-02-09T03:38:28.882Z,35.27
2023-02-09T03:39:51.062Z,30.97
2023-02-09T03:41:13.188Z,33.53
2023-02-09T03:42:35.290Z,33.07
2023-02-09T03:44:15.849Z,28.90
2023-02-09T03:45:38.722Z,29.17
2023-02-09T03:47:03.628Z,32.80
2023-02-09T03:48:25.696Z,27.80
2023-02-09T03:49:47.748Z,31.70
2023-02-09T03:51:10.338Z,27.33
2023-02-09T03:52:32.840Z,28.80
2023-02-09T03:53:54.877Z,30.00
2023-02-09T03:55:17.190Z,33.63
2023-02-09T03:56:39.226Z,28.53
2023-02-09T03:58:01.299Z,34.33
2023-02-09T03:59:25.185Z,33.47
2023-02-09T04:00:47.497Z,29.80
2023-02-09T04:02:10.788Z,37.27
2023-02-09T04:03:33.137Z,29.80
2023-02-09T04:04:55.253Z,35.07
2023-02-09T04:06:17.360Z,29.43
2023-02-09T04:07:39.398Z,27.13
2023-02-09T04:09:03.101Z,27.10
2023-02-09T04:10:25.134Z,35.20
2023-02-09T04:11:47.399Z,29.57
2023-02-09T04:13:09.452Z,32.50
2023-02-09T04:14:31.544Z,29.10
2023-02-09T04:15:54.040Z,28.63
2023-02-09T04:17:16.548Z,33.93
2023-02-09T04:18:38.767Z,30.00
2023-02-09T04:20:00.845Z,26.77
2023-02-09T04:21:23.232Z,35.33
2023-02-09T04:22:45.232Z,32.63
2023-02-09T04:24:08.037Z,30.70
2023-02-09T04:25:30.075Z,26.83
2023-02-09T04:26:52.138Z,30.80
2023-02-09T04:28:14.221Z,31.13
2023-02-09T04:29:36.364Z,29.80
2023-02-09T04:30:58.652Z,35.67
2023-02-09T04:32:20.747Z,29.57
2023-02-09T04:33:42.916Z,36.90
2023-02-09T04:35:05.265Z,37.23
2023-02-09T04:36:27.406Z,32.73
2023-02-09T04:37:49.503Z,32.03
2023-02-09T04:39:11.555Z,31.70
2023-02-09T04:40:34.093Z,32.53
2023-02-09T04:41:56.260Z,30.83
2023-02-09T04:43:18.722Z,31.33
2023-02-09T04:44:40.795Z,32.10
2023-02-09T04:46:02.927Z,29.03
2023-02-09T04:47:25.140Z,29.90
2023-02-09T04:48:47.227Z,32.23
2023-02-09T04:50:09.607Z,30.87
2023-02-09T04:51:31.705Z,32.93
2023-02-09T04:52:53.754Z,30.03
2023-02-09T04:54:15.824Z,29.60
2023-02-09T04:55:39.764Z,33.97
2023-02-09T04:57:20.469Z,36.33
2023-02-09T04:59:01.676Z,33.30
2023-02-09T05:00:23.755Z,33.83
2023-02-09T05:01:45.822Z,33.00
2023-02-09T05:03:07.989Z,31.77
2023-02-09T05:04:30.630Z,29.37
2023-02-09T05:06:01.387Z,30.53
2023-02-09T05:07:23.468Z,31.77
2023-02-09T05:08:45.612Z,28.60
2023-02-09T05:10:07.915Z,30.70
2023-02-09T05:11:30.009Z,29.23
2023-02-09T05:12:52.506Z,30.20
2023-02-09T05:14:14.833Z,36.30
2023-02-09T05:15:36.915Z,29.60
2023-02-09T05:16:59.859Z,30.10
2023-02-09T05:18:22.588Z,28.13
2023-02-09T05:19:44.662Z,30.20
2023-02-09T05:21:06.804Z,33.47
2023-02-09T05:22:28.868Z,33.50
2023-02-09T05:23:50.944Z,27.10
2023-02-09T05:25:13.168Z,32.80
2023-02-09T05:26:35.391Z,33.70
2023-02-09T05:27:57.732Z,30.70
2023-02-09T05:29:22.147Z,37.00
2023-02-09T05:30:44.892Z,35.20
2023-02-09T05:32:07.383Z,35.97
2023-02-09T05:33:29.448Z,25.73
2023-02-09T05:34:51.550Z,31.00
2023-02-09T05:36:13.645Z,32.90
2023-02-09T05:37:35.735Z,33.73
2023-02-09T05:38:57.764Z,30.23
2023-02-09T05:40:19.913Z,32.47
2023-02-09T05:42:00.624Z,34.47
2023-02-09T05:43:22.653Z,32.90
2023-02-09T05:44:49.584Z,32.03
2023-02-09T05:46:11.677Z,34.27
2023-02-09T05:47:33.962Z,34.17
2023-02-09T05:48:56.139Z,32.70
2023-02-09T05:50:18.379Z,34.33
2023-02-09T05:51:40.473Z,31.27
2023-02-09T05:53:02.671Z,33.27
2023-02-09T05:54:24.772Z,36.63
2023-02-09T05:55:47.270Z,29.87
2023-02-09T05:57:09.628Z,32.23
2023-02-09T05:58:31.696Z,37.40
2023-02-09T05:59:53.794Z,30.20
2023-02-09T06:01:15.939Z,35.87
2023-02-09T06:02:38.148Z,30.77
2023-02-09T06:04:00.367Z,35.03
2023-02-09T06:05:22.547Z,29.13
2023-02-09T06:06:44.638Z,34.63
2023-02-09T06:08:06.709Z,37.10
2023-02-09T06:09:28.883Z,28.17
2023-02-09T06:10:50.919Z,34.53
2023-02-09T06:12:12.953Z,33.17
2023-02-09T06:13:35.012Z,29.27
2023-02-09T06:14:57.085Z,39.80
2023-02-09T06:16:19.325Z,33.10
2023-02-09T06:17:41.599Z,33.93
2023-02-09T06:19:04.208Z,39.20
2023-02-09T06:20:26.298Z,33.80
2023-02-09T06:21:48.450Z,32.83
2023-02-09T06:23:10.471Z,31.47
2023-02-09T06:24:32.662Z,30.60
2023-02-09T06:25:54.701Z,31.93
2023-02-09T06:27:16.867Z,28.70
2023-02-09T06:28:39.279Z,31.23
2023-02-09T06:30:01.401Z,32.87
2023-02-09T06:31:23.617Z,37.63
2023-02-09T06:32:45.762Z,35.87
2023-02-09T06:34:09.096Z,30.87
2023-02-09T06:35:31.162Z,33.30
2023-02-09T06:36:53.240Z,31.50
2023-02-09T06:38:15.289Z,35.00
2023-02-09T06:39:37.387Z,31.77
2023-02-09T06:40:59.564Z,36.83
2023-02-09T06:42:21.664Z,32.73
2023-02-09T06:43:43.815Z,32.67
2023-02-09T06:45:06.073Z,35.33
2023-02-09T06:46:28.686Z,33.03
2023-02-09T06:47:51.001Z,31.67
2023-02-09T06:49:13.232Z,25.87
2023-02-09T06:50:36.812Z,35.20
2023-02-09T06:51:58.988Z,31.53
2023-02-09T06:53:21.310Z,36.07
2023-02-09T06:54:45.097Z,40.40
2023-02-09T06:56:08.481Z,31.57
2023-02-09T06:57:31.316Z,33.30
2023-02-09T06:58:53.416Z,39.07
2023-02-09T07:00:16.421Z,32.50
2023-02-09T07:01:38.604Z,29.97
2023-02-09T07:03:00.738Z,28.30
2023-02-09T07:04:22.858Z,30.40
2023-02-09T07:05:44.871Z,29.77
2023-02-09T07:07:07.051Z,26.17
2023-02-09T07:08:29.147Z,28.73
2023-02-09T07:09:51.183Z,28.90
2023-02-09T07:11:16.213Z,32.13
2023-02-09T07:12:40.694Z,24.93
2023-02-09T07:14:02.994Z,30.10
2023-02-09T07:15:25.050Z,33.97
2023-02-09T07:16:47.118Z,37.57
2023-02-09T07:18:09.160Z,30.30
2023-02-09T07:19:31.291Z,32.07
2023-02-09T07:20:58.217Z,25.97
2023-02-09T07:22:20.728Z,29.67
2023-02-09T07:23:42.822Z,28.63
2023-02-09T07:25:05.481Z,31.13
2023-02-09T07:26:27.556Z,26.80
2023-02-09T07:27:49.663Z,32.77
2023-02-09T07:29:12.953Z,27.30
2023-02-09T07:30:35.134Z,33.93
2023-02-09T07:31:57.458Z,36.37
2023-02-09T07:33:20.812Z,26.17
2023-02-09T07:34:43.152Z,27.67
2023-02-09T07:36:07.401Z,31.13
2023-02-09T07:37:29.627Z,33.40
2023-02-09T07:38:51.822Z,29.53
2023-02-09T07:40:15.995Z,27.80
2023-02-09T07:41:38.092Z,35.27
2023-02-09T07:43:00.105Z,40.97
2023-02-09T07:44:22.332Z,30.43
2023-02-09T07:45:44.772Z,31.00
2023-02-09T07:47:06.989Z,35.33
2023-02-09T07:48:29.968Z,32.23
2023-02-09T07:49:52.037Z,31.47
2023-02-09T07:51:15.892Z,34.90
2023-02-09T07:52:37.969Z,33.87
2023-02-09T07:54:00.521Z,24.87
2023-02-09T07:55:22.950Z,31.73
2023-02-09T07:56:45.072Z,22.47
2023-02-09T07:58:07.198Z,28.60
2023-02-09T07:59:29.249Z,27.27
2023-02-09T08:00:52.007Z,25.03
2023-02-09T08:02:23.911Z,32.73
2023-02-09T08:03:48.104Z,34.40
2023-02-09T08:05:20.615Z,27.93
2023-02-09T08:06:46.841Z,32.50
2023-02-09T08:08:08.875Z,30.80
2023-02-09T08:09:31.181Z,32.47
2023-02-09T08:10:56.629Z,29.03
2023-02-09T08:12:19.373Z,27.80
2023-02-09T08:13:41.648Z,29.00
2023-02-09T08:15:05.586Z,28.33
2023-02-09T08:16:30.800Z,32.17
2023-02-09T08:17:56.790Z,29.93
2023-02-09T08:19:22.564Z,29.00
2023-02-09T08:20:46.244Z,29.20
2023-02-09T08:22:08.444Z,31.67
2023-02-09T08:23:34.222Z,27.87
2023-02-09T08:24:57.147Z,30.77
2023-02-09T08:26:19.501Z,28.60
2023-02-09T08:27:43.279Z,32.33
2023-02-09T08:29:07.278Z,33.83
2023-02-09T08:30:29.656Z,31.47
2023-02-09T08:31:51.800Z,33.73
2023-02-09T08:33:13.917Z,31.80
2023-02-09T08:34:35.967Z,36.63
2023-02-09T08:35:58.083Z,29.23
2023-02-09T08:37:20.156Z,31.53
2023-02-09T08:38:42.507Z,28.40
2023-02-09T08:40:04.944Z,29.80
2023-02-09T08:41:27.242Z,30.37
2023-02-09T08:42:49.309Z,33.80
2023-02-09T08:44:11.398Z,28.27
2023-02-09T08:45:36.449Z,30.70
2023-02-09T08:46:58.689Z,31.23
2023-02-09T08:48:20.866Z,29.73
2023-02-09T08:49:43.030Z,32.67
2023-02-09T08:51:06.619Z,32.47
2023-02-09T08:52:28.936Z,29.87
2023-02-09T08:53:52.645Z,23.50
2023-02-09T08:55:14.912Z,32.97
2023-02-09T08:56:37.021Z,30.10
2023-02-09T08:57:59.592Z,30.10
2023-02-09T08:59:22.060Z,30.70
2023-02-09T09:00:44.544Z,30.63
2023-02-09T09:02:06.838Z,30.83
2023-02-09T09:03:31.574Z,31.03
2023-02-09T09:04:53.802Z,28.00
2023-02-09T09:06:15.969Z,28.93
2023-02-09T09:07:38.023Z,30.20
2023-02-09T09:09:00.492Z,30.07
2023-02-09T09:10:22.600Z,31.00
2023-02-09T09:11:44.718Z,33.20
2023-02-09T09:13:06.785Z,29.73
2023-02-09T09:14:28.859Z,37.10
2023-02-09T09:15:51.723Z,29.97
2023-02-09T09:17:13.764Z,29.80
2023-02-09T09:18:35.836Z,30.40
2023-02-09T09:19:58.800Z,33.57
2023-02-09T09:21:20.904Z,31.73
2023-02-09T09:22:42.992Z,31.57
2023-02-09T09:24:05.316Z,32.23
2023-02-09T09:25:27.609Z,28.67
2023-02-09T09:26:49.722Z,28.00
2023-02-09T09:28:11.871Z,25.73
2023-02-09T09:29:35.440Z,30.90
2023-02-09T09:30:59.850Z,32.47
2023-02-09T09:32:24.792Z,33.17
2023-02-09T09:33:47.774Z,41.60
2023-02-09T09:35:09.880Z,27.57
2023-02-09T09:36:31.993Z,32.43
2023-02-09T09:37:57.261Z,28.70
2023-02-09T09:39:19.565Z,30.43
2023-02-09T09:40:45.887Z,33.70
2023-02-09T09:42:35.777Z,30.87
2023-02-09T09:43:58.717Z,27.77
2023-02-09T09:45:23.910Z,35.30
2023-02-09T09:46:51.683Z,32.13
2023-02-09T09:48:23.857Z,29.77
2023-02-09T09:49:46.693Z,34.17
2023-02-09T09:51:24.578Z,32.50
2023-02-09T09:52:50.969Z,31.80
2023-02-09T09:54:20.241Z,28.47
2023-02-09T09:55:44.426Z,31.90
2023-02-09T09:57:21.268Z,31.77
2023-02-09T09:58:44.688Z,34.37
2023-02-09T10:00:16.241Z,27.83
2023-02-09T10:01:38.373Z,28.87
2023-02-09T10:03:00.533Z,32.40
2023-02-09T10:04:22.701Z,29.03
2023-02-09T10:05:48.681Z,29.17
2023-02-09T10:07:19.579Z,24.80
2023-02-09T10:09:04.931Z,31.17
2023-02-09T10:10:53.288Z,29.67
2023-02-09T10:12:42.279Z,30.10
2023-02-09T10:14:04.400Z,23.97
2023-02-09T10:15:35.266Z,30.70
2023-02-09T10:16:57.354Z,31.90
2023-02-09T10:18:25.450Z,26.33
2023-02-09T10:20:38.849Z,36.67
2023-02-09T10:22:01.050Z,28.73
2023-02-09T10:23:36.603Z,29.10
2023-02-09T10:24:59.769Z,36.87
2023-02-09T10:26:34.501Z,28.90
2023-02-09T10:27:56.563Z,30.53
2023-02-09T10:29:18.587Z,28.13
2023-02-09T10:30:40.778Z,28.30
2023-02-09T10:32:16.671Z,24.10
2023-02-09T10:33:44.065Z,37.87
2023-02-09T10:35:25.727Z,30.30
2023-02-09T10:36:54.757Z,29.53
2023-02-09T10:38:20.422Z,29.97
2023-02-09T10:39:42.783Z,29.20
2023-02-09T10:41:10.194Z,30.80
2023-02-09T10:42:35.577Z,29.57
2023-02-09T10:43:58.036Z,27.03
2023-02-09T10:45:23.222Z,28.37
2023-02-09T10:46:47.116Z,31.53
2023-02-09T10:48:12.210Z,27.00
2023-02-09T10:49:36.328Z,25.07
2023-02-09T10:51:08.232Z,31.97
2023-02-09T10:52:38.582Z,25.30
2023-02-09T10:54:19.781Z,27.43
2023-02-09T10:55:42.822Z,26.30
2023-02-09T10:57:24.092Z,32.50
2023-02-09T10:59:03.431Z,30.10
2023-02-09T11:00:35.630Z,25.47
2023-02-09T11:02:00.550Z,25.03
2023-02-09T11:03:27.243Z,25.07
2023-02-09T11:04:49.384Z,29.53
2023-02-09T11:06:18.862Z,26.13
2023-02-09T11:07:41.729Z,24.90
2023-02-09T11:09:14.185Z,26.60
2023-02-09T11:10:41.808Z,25.67
2023-02-09T11:12:04.162Z,23.40
2023-02-09T11:13:27.706Z,26.00
2023-02-09T11:14:50.080Z,24.00
2023-02-09T11:16:37.915Z,26.87
2023-02-09T11:18:06.447Z,25.17
2023-02-09T11:19:48.134Z,26.30
2023-02-09T11:21:20.283Z,27.63
2023-02-09T11:23:16.293Z,22.80
2023-02-09T11:24:44.478Z,25.73
2023-02-09T11:26:39.362Z,22.93
2023-02-09T11:28:27.982Z,22.50
2023-02-09T11:30:06.112Z,24.20
2023-02-09T11:31:40.208Z,21.50
2023-02-09T11:33:37.937Z,25.83
2023-02-09T11:35:12.987Z,22.67
2023-02-09T11:36:59.616Z,27.00
2023-02-09T11:38:52.084Z,25.57
2023-02-09T11:40:29.273Z,27.90
2023-02-09T11:42:23.673Z,22.83
2023-02-09T11:43:49.105Z,30.13
2023-02-09T11:45:29.705Z,22.93
2023-02-09T11:46:58.759Z,24.17
2023-02-09T11:48:39.219Z,23.70
2023-02-09T11:50:07.920Z,24.27
2023-02-09T11:51:33.863Z,22.10
2023-02-09T11:53:00.405Z,24.33
2023-02-09T11:54:32.677Z,25.90
2023-02-09T11:56:00.689Z,25.00
2023-02-09T11:57:40.683Z,23.03
2023-02-09T11:59:18.867Z,26.53
2023-02-09T12:01:01.798Z,22.77
2023-02-09T12:02:40.891Z,20.50
2023-02-09T12:04:12.608Z,27.17
2023-02-09T12:05:35.327Z,27.00
2023-02-09T12:07:10.458Z,25.30
2023-02-09T12:08:48.886Z,23.67
2023-02-09T12:10:26.969Z,22.23
2023-02-09T12:11:59.451Z,21.07
2023-02-09T12:13:30.068Z,25.27
2023-02-09T12:15:03.813Z,20.50
2023-02-09T12:16:51.191Z,28.90
2023-02-09T12:18:22.908Z,26.03
2023-02-09T12:19:54.012Z,23.13
2023-02-09T12:21:29.102Z,28.50
2023-02-09T12:22:57.832Z,22.53
2023-02-09T12:25:07.616Z,24.93
2023-02-09T12:26:43.709Z,22.70
2023-02-09T12:28:08.816Z,22.10
2023-02-09T12:29:39.827Z,25.00
2023-02-09T12:31:09.572Z,21.57
2023-02-09T12:32:44.126Z,22.00
2023-02-09T12:34:12.947Z,22.10
2023-02-09T12:35:39.924Z,23.47
2023-02-09T12:37:14.121Z,22.83
2023-02-09T12:39:03.920Z,24.73
2023-02-09T12:40:37.196Z,23.50
2023-02-09T12:42:02.338Z,23.40
2023-02-09T12:43:30.286Z,27.00
2023-02-09T12:44:57.666Z,22.30
2023-02-09T12:46:24.721Z,20.47
2023-02-09T12:47:57.446Z,19.73
2023-02-09T12:49:29.893Z,22.93
2023-02-09T12:50:54.495Z,21.63
2023-02-09T12:52:17.299Z,20.67
2023-02-09T12:53:45.884Z,20.17
2023-02-09T12:55:19.781Z,19.53
2023-02-09T12:56:41.835Z,18.53
2023-02-09T12:58:35.911Z,23.27
2023-02-09T13:00:00.783Z,22.23
2023-02-09T13:02:01.564Z,23.30
2023-02-09T13:03:25.426Z,21.43
2023-02-09T13:05:16.336Z,19.43
2023-02-09T13:06:47.758Z,20.13
2023-02-09T13:08:20.102Z,22.50
2023-02-09T13:09:43.314Z,22.67
2023-02-09T13:11:46.012Z,20.47
2023-02-09T13:13:10.964Z,22.20
2023-02-09T13:14:33.273Z,18.07
2023-02-09T13:16:31.016Z,21.83
2023-02-09T13:18:44.984Z,22.63
2023-02-09T13:20:34.313Z,19.17
2023-02-09T13:22:15.790Z,24.37
2023-02-09T13:23:55.066Z,21.40
2023-02-09T13:25:26.461Z,19.60
2023-02-09T13:26:57.156Z,23.37
2023-02-09T13:28:23.930Z,17.53
2023-02-09T13:29:58.001Z,19.40
2023-02-09T13:31:34.468Z,18.93
2023-02-09T13:33:21.668Z,20.27
2023-02-09T13:34:52.645Z,18.40
2023-02-09T13:36:36.226Z,21.30
2023-02-09T13:38:00.170Z,19.87
2023-02-09T13:39:25.059Z,21.17
2023-02-09T13:40:50.820Z,19.37
2023-02-09T13:42:24.822Z,20.23
2023-02-09T13:43:47.211Z,23.43
2023-02-09T13:45:18.463Z,17.97
2023-02-09T13:46:40.567Z,22.60
2023-02-09T13:48:04.811Z,16.07
2023-02-09T13:49:28.883Z,16.27
2023-02-09T13:50:52.565Z,18.47
2023-02-09T13:52:19.918Z,19.80
2023-02-09T13:53:42.069Z,23.13
2023-02-09T13:55:18.496Z,17.07
2023-02-09T13:56:41.673Z,20.10
2023-02-09T13:58:07.207Z,24.23
2023-02-09T13:59:29.996Z,19.83
2023-02-09T14:00:56.862Z,19.07
2023-02-09T14:02:26.849Z,20.17
2023-02-09T14:03:58.519Z,22.77
2023-02-09T14:05:36.650Z,21.40
2023-02-09T14:07:05.437Z,20.30
2023-02-09T14:08:29.985Z,24.10
2023-02-09T14:10:06.306Z,19.47
2023-02-09T14:11:41.956Z,19.53
2023-02-09T14:13:16.370Z,24.93
2023-02-09T14:15:00.979Z,20.97
2023-02-09T14:16:27.974Z,21.93
2023-02-09T14:17:51.591Z,22.90
2023-02-09T14:19:30.940Z,20.70
2023-02-09T14:21:15.640Z,23.87
2023-02-09T14:22:39.354Z,20.73
2023-02-09T14:24:13.609Z,21.23
2023-02-09T14:25:35.815Z,16.80
2023-02-09T14:27:25.929Z,19.53
2023-02-09T14:28:52.786Z,22.90
2023-02-09T14:30:20.323Z,18.83
2023-02-09T14:31:44.882Z,19.07
2023-02-09T14:33:21.803Z,19.10
2023-02-09T14:34:43.929Z,21.30
2023-02-09T14:36:07.531Z,20.40
2023-02-09T14:37:30.623Z,19.50
2023-02-09T14:38:52.740Z,18.23
2023-02-09T14:40:22.802Z,18.87
2023-02-09T14:42:18.033Z,20.57
2023-02-09T14:43:40.072Z,22.00
2023-02-09T14:45:25.300Z,22.50
2023-02-09T14:46:52.652Z,26.97
2023-02-09T14:48:32.933Z,19.93
2023-02-09T14:49:56.321Z,19.80
2023-02-09T14:51:19.163Z,20.47
2023-02-09T14:52:47.383Z,20.50
2023-02-09T14:54:27.930Z,20.03
2023-02-09T14:55:50.284Z,18.20
2023-02-09T14:57:13.042Z,19.70
2023-02-09T14:58:35.144Z,20.77
2023-02-09T14:59:57.280Z,23.47
2023-02-09T15:01:19.440Z,18.00
2023-02-09T15:02:41.655Z,20.77
2023-02-09T15:04:03.871Z,19.13
2023-02-09T15:05:26.163Z,18.17
2023-02-09T15:06:56.385Z,20.33
2023-02-09T15:08:22.964Z,22.53
2023-02-09T15:09:45.954Z,19.47
2023-02-09T15:11:42.495Z,18.40
2023-02-09T15:13:05.684Z,21.77
2023-02-09T15:14:27.836Z,22.23
2023-02-09T15:15:50.164Z,19.03
2023-02-09T15:17:21.586Z,20.20
2023-02-09T15:18:43.731Z,22.73
2023-02-09T15:20:06.471Z,19.90
2023-02-09T15:21:28.571Z,20.17
2023-02-09T15:22:54.732Z,19.40
2023-02-09T15:24:16.956Z,22.43
2023-02-09T15:25:40.777Z,20.27
2023-02-09T15:27:03.116Z,21.83
2023-02-09T15:28:31.161Z,20.60
2023-02-09T15:29:55.839Z,21.07
2023-02-09T15:31:19.281Z,20.77
2023-02-09T15:32:41.428Z,23.47
2023-02-09T15:34:05.153Z,20.53
2023-02-09T15:35:28.325Z,22.33
2023-02-09T15:36:50.546Z,20.13
2023-02-09T15:38:14.819Z,19.63
2023-02-09T15:39:37.000Z,23.48
2023-02-09T15:41:17.561Z,20.10
2023-02-09T15:43:01.611Z,21.17
2023-02-09T15:44:42.486Z,18.40
2023-02-09T15:46:24.129Z,22.07
2023-02-09T15:47:49.059Z,28.60
2023-02-09T15:49:11.377Z,20.43
2023-02-09T15:50:35.429Z,23.30
2023-02-09T15:51:57.583Z,22.77
2023-02-09T15:53:21.295Z,21.87
2023-02-09T15:54:44.511Z,19.33
2023-02-09T15:56:08.348Z,23.33
2023-02-09T15:58:51.089Z,20.40
2023-02-09T16:00:21.067Z,20.00
2023-02-09T16:01:43.155Z,17.33
2023-02-09T16:03:20.077Z,20.40
2023-02-09T16:04:42.800Z,18.40
2023-02-09T16:06:22.049Z,26.00
2023-02-09T16:07:44.463Z,17.03
2023-02-09T16:09:09.533Z,17.33
2023-02-09T16:10:31.818Z,18.60
2023-02-09T16:11:54.096Z,23.83
2023-02-09T16:13:18.400Z,20.80
2023-02-09T16:14:40.680Z,23.47
2023-02-09T16:16:16.190Z,20.50
2023-02-09T16:17:39.010Z,19.80
2023-02-09T16:19:01.070Z,23.53
2023-02-09T16:20:25.786Z,22.30
2023-02-09T16:21:56.349Z,20.17
2023-02-09T16:23:22.914Z,17.27
2023-02-09T16:24:46.125Z,19.60
2023-02-09T16:26:09.374Z,23.03
2023-02-09T16:27:31.605Z,20.43
2023-02-09T16:28:54.092Z,22.93
2023-02-09T16:30:20.791Z,25.17
2023-02-09T16:31:42.981Z,27.13
2023-02-09T16:33:05.080Z,22.00
2023-02-09T16:34:27.188Z,21.77
2023-02-09T16:35:57.693Z,20.67
2023-02-09T16:37:29.136Z,20.50
2023-02-09T16:38:51.473Z,28.77
2023-02-09T16:40:24.735Z,19.50
2023-02-09T16:41:48.146Z,23.57
2023-02-09T16:43:11.165Z,20.20
2023-02-09T16:44:35.096Z,21.97
2023-02-09T16:46:03.836Z,22.60
2023-02-09T16:47:27.965Z,24.70
2023-02-09T16:48:50.407Z,22.13
2023-02-09T16:50:33.017Z,21.50
2023-02-09T16:52:02.501Z,21.30
2023-02-09T16:53:32.943Z,21.87
2023-02-09T16:54:58.033Z,21.07
2023-02-09T16:56:20.813Z,24.33
2023-02-09T16:57:43.015Z,24.93
2023-02-09T16:59:05.107Z,21.80
2023-02-09T17:00:30.792Z,20.87
2023-02-09T17:01:53.024Z,19.47
2023-02-09T17:03:19.908Z,19.10
2023-02-09T17:04:42.268Z,23.67
2023-02-09T17:06:04.689Z,21.23
2023-02-09T17:07:45.337Z,21.90
2023-02-09T17:09:16.169Z,20.03
2023-02-09T17:10:38.345Z,18.93
2023-02-09T17:12:00.507Z,23.73
2023-02-09T17:13:23.314Z,23.60
2023-02-09T17:14:45.396Z,19.57
2023-02-09T17:16:09.052Z,21.03
2023-02-09T17:17:31.176Z,19.43
2023-02-09T17:18:58.032Z,22.50
2023-02-09T17:20:23.160Z,28.70
2023-02-09T17:21:45.297Z,24.80
2023-02-09T17:23:09.859Z,20.57
2023-02-09T17:24:31.918Z,23.17
2023-02-09T17:25:57.139Z,22.37
2023-02-09T17:27:19.227Z,24.80
2023-02-09T17:28:43.144Z,21.63
2023-02-09T17:30:05.589Z,24.17
2023-02-09T17:31:38.210Z,24.60
2023-02-09T17:33:10.533Z,20.93
2023-02-09T17:34:32.687Z,20.53
2023-02-09T17:36:25.648Z,20.10
2023-02-09T17:37:38.288Z,23.50
2023-02-09T17:39:00.933Z,24.67
2023-02-09T17:40:23.080Z,21.33
2023-02-09T17:41:48.278Z,19.07
2023-02-09T17:43:10.589Z,21.27
2023-02-09T17:44:45.554Z,20.27
2023-02-09T17:46:11.247Z,16.67
2023-02-09T17:47:33.357Z,20.10
2023-02-09T17:48:55.404Z,23.10
2023-02-09T17:50:18.426Z,23.50
2023-02-09T17:51:43.110Z,19.83
2023-02-09T17:53:12.420Z,25.33
2023-02-09T17:54:34.517Z,20.03
2023-02-09T17:55:56.639Z,24.60
2023-02-09T17:57:19.581Z,21.03
2023-02-09T17:58:45.903Z,18.07
2023-02-09T18:00:08.621Z,20.87
2023-02-09T18:01:33.247Z,20.30
2023-02-09T18:02:55.496Z,24.83
2023-02-09T18:04:21.862Z,33.87
2023-02-09T18:05:45.371Z,21.47
2023-02-09T18:07:08.126Z,20.27
2023-02-09T18:08:31.055Z,18.07
2023-02-09T18:09:54.372Z,19.20
2023-02-09T18:11:16.844Z,21.23
2023-02-09T18:12:38.923Z,22.03
2023-02-09T18:14:01.024Z,20.77
2023-02-09T18:15:28.762Z,19.67
2023-02-09T18:16:51.903Z,18.20
2023-02-09T18:18:14.664Z,18.10
2023-02-09T18:19:36.733Z,19.40
2023-02-09T18:20:58.857Z,19.20
2023-02-09T18:22:20.894Z,18.00
2023-02-09T18:23:42.929Z,20.17
2023-02-09T18:25:05.193Z,19.17
2023-02-09T18:26:27.383Z,18.13
2023-02-09T18:27:51.382Z,21.77
2023-02-09T18:29:14.363Z,19.23
2023-02-09T18:30:39.633Z,18.90
2023-02-09T18:32:02.874Z,18.57
2023-02-09T18:33:25.003Z,17.87
2023-02-09T18:34:47.099Z,18.63
2023-02-09T18:36:09.314Z,20.63
2023-02-09T18:37:32.329Z,21.27
2023-02-09T18:38:54.933Z,18.33
2023-02-09T18:40:18.673Z,21.43